Time;durP1;ratioP1;P1;durP2;ratioP2;P2;SDS_P1;SDS_P2;PMS_P1;PMS_P2;Temp;Humidity;BMP_temperature;BMP_pressure;BME280_temperature;BME280_humidity;BME280_pressure;Samples;Min_cycle;Max_cycle;Signal;HPM_P1;HPM_P2
2022/09/15 00:02:25;;;;;;;0.83;0.83;;;19.60;99.90;;;;;;5070623;28;20285;-65
2022/09/15 00:04:51;;;;;;;0.77;0.77;;;19.60;99.90;;;;;;5074897;28;20212;-67
2022/09/15 00:07:19;;;;;;;0.70;0.70;;;19.60;99.90;;;;;;5075610;28;20211;-63
2022/09/15 00:09:46;;;;;;;0.90;0.90;;;19.60;99.90;;;;;;5096670;28;20191;-65
2022/09/15 00:12:13;;;;;;;0.80;0.80;;;19.60;99.90;;;;;;5089248;28;20711;-66
2022/09/15 00:14:40;;;;;;;1.00;1.00;;;19.60;99.90;;;;;;5081156;28;20306;-66
2022/09/15 00:17:07;;;;;;;0.80;0.80;;;19.60;99.90;;;;;;5081383;28;20210;-66
2022/09/15 00:19:35;;;;;;;1.07;0.90;;;19.60;99.90;;;;;;5082595;28;20219;-65
2022/09/15 00:22:02;;;;;;;0.90;0.90;;;19.60;99.90;;;;;;5084687;28;20203;-66
2022/09/15 00:24:28;;;;;;;0.70;0.70;;;19.60;99.90;;;;;;5075426;28;20238;-67
2022/09/15 00:26:55;;;;;;;0.77;0.77;;;19.60;99.90;;;;;;5087214;28;20198;-67
2022/09/15 00:29:22;;;;;;;0.70;0.70;;;19.60;99.90;;;;;;5076387;28;20218;-66
2022/09/15 00:31:49;;;;;;;0.87;0.87;;;19.60;99.90;;;;;;5082203;28;20201;-67
2022/09/15 00:34:16;;;;;;;0.80;0.80;;;19.60;99.90;;;;;;5079841;28;20231;-66
2022/09/15 00:36:44;;;;;;;0.90;0.90;;;19.60;99.90;;;;;;5090054;28;20271;-67
2022/09/15 00:39:11;;;;;;;0.80;0.80;;;19.60;99.90;;;;;;5090122;28;20653;-66
2022/09/15 00:41:39;;;;;;;0.80;0.80;;;19.60;99.90;;;;;;5085924;28;20207;-65
2022/09/15 00:44:27;;;;;;;0.80;0.80;;;19.70;99.90;;;;;;5091462;28;20626;-67
2022/09/15 00:46:56;;;;;;;0.77;0.70;;;19.60;99.90;;;;;;5080280;28;20282;-65
2022/09/15 00:49:27;;;;;;;0.80;0.80;;;19.60;99.90;;;;;;5091688;28;20196;-66
2022/09/15 00:52:01;;;;;;;0.80;0.80;;;19.60;99.90;;;;;;5071659;28;20211;-65
2022/09/15 00:54:37;;;;;;;0.70;0.70;;;19.60;99.90;;;;;;5088684;28;20219;-66
2022/09/15 00:57:10;;;;;;;0.80;0.80;;;19.50;99.90;;;;;;5088440;28;20211;-67
2022/09/15 00:59:40;;;;;;;0.57;0.57;;;19.50;99.90;;;;;;5082831;28;20226;-66
2022/09/15 01:02:14;;;;;;;1.03;0.70;;;19.60;99.90;;;;;;5091450;28;20277;-64
2022/09/15 01:04:42;;;;;;;0.80;0.80;;;19.60;99.90;;;;;;5084201;28;20313;-66
2022/09/15 01:07:15;;;;;;;0.80;0.80;;;19.60;99.90;;;;;;5088153;28;20202;-65
2022/09/15 01:09:50;;;;;;;0.80;0.80;;;19.60;99.90;;;;;;5084322;28;20199;-65
2022/09/15 01:12:17;;;;;;;0.67;0.67;;;19.60;99.90;;;;;;5089011;28;20206;-66
2022/09/15 01:14:44;;;;;;;0.80;0.80;;;19.50;99.90;;;;;;5083228;28;20222;-65
2022/09/15 01:17:19;;;;;;;0.73;0.73;;;19.60;99.90;;;;;;5084241;28;20202;-66
2022/09/15 01:20:13;;;;;;;0.80;0.80;;;19.60;99.90;;;;;;5084287;28;20680;-67
2022/09/15 01:22:56;;;;;;;0.63;0.63;;;19.50;99.90;;;;;;5088540;28;20302;-66
2022/09/15 01:25:40;;;;;;;0.70;0.70;;;19.50;99.90;;;;;;5078325;28;20202;-66
2022/09/15 01:28:48;;;;;;;1.00;0.90;;;19.60;99.90;;;;;;5079502;28;20640;-67
2022/09/15 01:31:23;;;;;;;0.77;0.77;;;19.60;99.90;;;;;;5076101;28;20285;-66
2022/09/15 01:33:56;;;;;;;0.70;0.70;;;19.50;99.90;;;;;;5080689;28;20232;-68
2022/09/15 01:36:27;;;;;;;0.57;0.57;;;19.50;99.90;;;;;;5086818;28;20664;-67
2022/09/15 01:39:00;;;;;;;0.97;0.97;;;19.60;99.90;;;;;;5081864;28;20236;-66
2022/09/15 01:41:30;;;;;;;1.23;0.80;;;19.50;99.90;;;;;;5087155;28;20218;-68
2022/09/15 01:44:05;;;;;;;0.63;0.63;;;19.50;99.90;;;;;;5081113;28;20735;-67
2022/09/15 01:46:37;;;;;;;1.07;0.80;;;19.50;99.90;;;;;;5087050;28;20904;-67
2022/09/15 01:49:06;;;;;;;0.57;0.57;;;19.50;99.90;;;;;;5092025;22;20687;-63
2022/09/15 01:51:34;;;;;;;0.70;0.70;;;19.50;99.90;;;;;;5073199;28;20610;-63
2022/09/15 01:54:03;;;;;;;0.80;0.80;;;19.50;99.90;;;;;;5084106;28;20575;-62
2022/09/15 01:56:30;;;;;;;0.60;0.60;;;19.50;99.90;;;;;;5082441;28;20572;-61
2022/09/15 01:58:57;;;;;;;0.93;0.73;;;19.50;99.90;;;;;;5082395;28;20717;-62
2022/09/15 02:01:30;;;;;;;0.70;0.70;;;19.50;99.90;;;;;;5077170;28;20219;-63
2022/09/15 02:04:02;;;;;;;0.90;0.90;;;19.50;99.90;;;;;;5073414;28;20293;-63
2022/09/15 02:06:36;;;;;;;0.70;0.70;;;19.50;99.90;;;;;;5080081;28;20291;-63
2022/09/15 02:09:11;;;;;;;0.60;0.60;;;19.50;99.90;;;;;;5078937;28;20667;-64
2022/09/15 02:11:44;;;;;;;0.63;0.63;;;19.50;99.90;;;;;;5087320;28;20281;-61
2022/09/15 02:14:17;;;;;;;0.70;0.70;;;19.40;99.90;;;;;;5079395;28;20290;-62
2022/09/15 02:16:47;;;;;;;0.60;0.60;;;19.40;99.90;;;;;;5081766;28;20203;-62
2022/09/15 02:19:22;;;;;;;0.60;0.60;;;19.30;99.90;;;;;;5080280;28;20785;-61
2022/09/15 02:21:57;;;;;;;0.70;0.70;;;19.30;99.90;;;;;;5082340;28;20238;-63
2022/09/15 02:24:28;;;;;;;0.70;0.70;;;19.30;99.90;;;;;;5067834;28;20509;-63
2022/09/15 02:26:55;;;;;;;1.13;0.80;;;19.30;99.90;;;;;;5080232;28;20202;-62
2022/09/15 02:29:25;;;;;;;0.83;0.83;;;19.30;99.90;;;;;;5078719;28;20225;-62
2022/09/15 02:31:54;;;;;;;0.60;0.60;;;19.30;99.90;;;;;;5074408;28;20707;-64
2022/09/15 02:34:26;;;;;;;0.63;0.63;;;19.30;99.90;;;;;;5082322;28;20291;-61
2022/09/15 02:36:55;;;;;;;0.67;0.67;;;19.30;99.90;;;;;;5068584;28;20675;-62
2022/09/15 02:39:26;;;;;;;0.50;0.50;;;19.30;99.90;;;;;;5081794;28;20226;-62
2022/09/15 02:41:53;;;;;;;0.60;0.60;;;19.20;99.90;;;;;;5081043;28;20233;-62
2022/09/15 02:44:20;;;;;;;0.60;0.60;;;19.20;99.90;;;;;;5086548;28;20552;-63
2022/09/15 02:46:46;;;;;;;1.00;0.87;;;19.30;99.90;;;;;;5085416;28;20633;-62
2022/09/15 02:49:13;;;;;;;0.70;0.70;;;19.30;99.90;;;;;;5085090;28;20889;-62
2022/09/15 02:51:41;;;;;;;0.80;0.80;;;19.30;99.90;;;;;;5084007;28;20206;-61
2022/09/15 02:54:08;;;;;;;0.43;0.43;;;19.30;99.90;;;;;;5086953;28;20203;-62
2022/09/15 02:56:36;;;;;;;0.70;0.70;;;19.30;99.90;;;;;;5084867;28;20573;-64
2022/09/15 02:59:02;;;;;;;0.60;0.60;;;19.30;99.90;;;;;;5086605;28;20227;-64
2022/09/15 03:01:33;;;;;;;0.77;0.77;;;19.30;99.90;;;;;;5085359;28;20227;-63
2022/09/15 03:04:01;;;;;;;0.80;0.80;;;19.20;99.90;;;;;;5082144;28;20891;-63
2022/09/15 03:06:33;;;;;;;0.70;0.70;;;19.20;99.90;;;;;;5089369;28;20676;-62
2022/09/15 03:09:03;;;;;;;1.20;0.80;;;19.20;99.90;;;;;;5083459;28;20300;-63
2022/09/15 03:11:31;;;;;;;0.70;0.60;;;19.20;99.90;;;;;;5084102;28;20191;-64
2022/09/15 03:13:59;;;;;;;0.70;0.70;;;19.20;99.90;;;;;;5092744;28;20203;-63
2022/09/15 03:16:27;;;;;;;0.80;0.80;;;19.10;99.90;;;;;;5103045;28;20571;-63
2022/09/15 03:18:55;;;;;;;0.70;0.70;;;19.20;99.90;;;;;;5082795;28;20223;-63
2022/09/15 03:21:22;;;;;;;0.80;0.80;;;19.20;99.90;;;;;;5083413;28;20219;-63
2022/09/15 03:23:49;;;;;;;0.67;0.67;;;19.20;99.90;;;;;;5082655;28;20195;-63
2022/09/15 03:26:18;;;;;;;0.60;0.60;;;19.20;99.90;;;;;;5077625;28;20200;-63
2022/09/15 03:28:44;;;;;;;0.70;0.70;;;19.20;99.90;;;;;;5088881;28;20611;-62
2022/09/15 03:31:11;;;;;;;0.60;0.60;;;19.20;99.90;;;;;;5081823;28;20209;-61
2022/09/15 03:33:39;;;;;;;0.77;0.77;;;19.20;99.90;;;;;;5083437;28;20203;-63
2022/09/15 03:36:06;;;;;;;0.70;0.70;;;19.20;99.90;;;;;;5085930;28;20211;-63
2022/09/15 03:38:33;;;;;;;0.70;0.70;;;19.20;99.90;;;;;;5081976;28;20227;-61
2022/09/15 03:41:02;;;;;;;0.60;0.60;;;19.30;99.90;;;;;;5083716;28;20224;-63
2022/09/15 03:43:31;;;;;;;0.60;0.60;;;19.30;99.90;;;;;;5081810;28;20306;-62
2022/09/15 03:45:58;;;;;;;0.53;0.53;;;19.30;99.90;;;;;;5088509;28;20229;-62
2022/09/15 03:48:26;;;;;;;0.50;0.50;;;19.30;99.90;;;;;;5080786;28;20229;-62
2022/09/15 03:50:53;;;;;;;0.60;0.60;;;19.30;99.90;;;;;;5070231;28;20217;-61
2022/09/15 03:53:20;;;;;;;0.50;0.50;;;19.30;99.90;;;;;;5084087;28;20237;-62
2022/09/15 03:55:48;;;;;;;0.60;0.60;;;19.30;99.90;;;;;;5084670;28;20248;-62
2022/09/15 03:58:15;;;;;;;1.17;1.00;;;19.20;99.90;;;;;;5084276;28;20207;-63
2022/09/15 04:00:44;;;;;;;0.60;0.60;;;19.30;99.90;;;;;;5083233;28;20223;-61
2022/09/15 04:03:11;;;;;;;0.60;0.60;;;19.30;99.90;;;;;;5085792;28;20264;-61
2022/09/15 04:05:38;;;;;;;0.60;0.60;;;19.20;99.90;;;;;;5077322;28;20195;-61
2022/09/15 04:08:05;;;;;;;0.70;0.70;;;19.20;99.90;;;;;;5083796;28;20302;-61
2022/09/15 04:10:32;;;;;;;0.73;0.57;;;19.30;99.90;;;;;;5082362;28;20667;-61
2022/09/15 04:12:59;;;;;;;0.53;0.53;;;19.30;99.90;;;;;;5084847;28;20207;-61
2022/09/15 04:15:26;;;;;;;0.70;0.70;;;19.20;99.90;;;;;;5083359;28;20206;-61
2022/09/15 04:17:54;;;;;;;0.50;0.50;;;19.20;99.90;;;;;;5083441;28;20202;-61
2022/09/15 04:20:21;;;;;;;0.87;0.70;;;19.20;99.90;;;;;;5084263;28;20735;-62
2022/09/15 04:22:48;;;;;;;0.73;0.70;;;19.20;99.90;;;;;;5083634;28;20241;-62
2022/09/15 04:25:15;;;;;;;0.57;0.57;;;19.20;99.90;;;;;;5083673;28;20248;-62
2022/09/15 04:27:42;;;;;;;0.70;0.70;;;19.20;99.90;;;;;;5082737;28;20234;-62
2022/09/15 04:30:10;;;;;;;0.63;0.63;;;19.20;99.90;;;;;;5083753;28;20218;-61
2022/09/15 04:32:37;;;;;;;0.60;0.60;;;19.20;99.90;;;;;;5084051;28;20224;-61
2022/09/15 04:35:06;;;;;;;0.60;0.60;;;19.20;99.90;;;;;;5084025;28;20203;-61
2022/09/15 04:37:33;;;;;;;0.60;0.60;;;19.10;99.90;;;;;;5075008;28;20208;-61
2022/09/15 04:40:00;;;;;;;1.17;0.80;;;19.20;99.90;;;;;;5078326;28;20227;-61
2022/09/15 04:42:27;;;;;;;0.67;0.67;;;19.20;99.90;;;;;;5084738;28;20226;-61
2022/09/15 04:44:54;;;;;;;0.73;0.73;;;19.20;99.90;;;;;;5081476;28;20206;-61
2022/09/15 04:47:21;;;;;;;0.50;0.50;;;19.20;99.90;;;;;;5084615;28;20210;-61
2022/09/15 04:49:48;;;;;;;1.00;1.00;;;19.20;99.90;;;;;;5079174;28;20717;-62
2022/09/15 04:52:16;;;;;;;0.67;0.67;;;19.20;99.90;;;;;;5084568;28;20205;-61
2022/09/15 04:54:43;;;;;;;0.70;0.70;;;19.20;99.90;;;;;;5081037;28;20206;-62
2022/09/15 04:57:10;;;;;;;0.60;0.60;;;19.10;99.90;;;;;;5076949;28;20203;-62
2022/09/15 04:59:37;;;;;;;0.70;0.67;;;19.10;99.90;;;;;;5082071;28;20254;-62
2022/09/15 05:02:04;;;;;;;0.50;0.50;;;19.10;99.90;;;;;;5083194;28;20232;-61
2022/09/15 05:04:30;;;;;;;0.40;0.40;;;19.10;99.90;;;;;;5076661;28;20206;-63
2022/09/15 05:06:57;;;;;;;0.60;0.60;;;19.20;99.90;;;;;;5072633;28;20204;-65
2022/09/15 05:09:28;;;;;;;0.50;0.50;;;19.10;99.90;;;;;;5078293;28;20226;-64
2022/09/15 05:11:55;;;;;;;0.70;0.70;;;19.10;99.90;;;;;;5073470;28;20654;-62
2022/09/15 05:14:22;;;;;;;0.70;0.70;;;19.10;99.90;;;;;;5081735;28;20206;-63
2022/09/15 05:16:49;;;;;;;0.60;0.60;;;19.20;99.90;;;;;;5083730;28;20583;-63
2022/09/15 05:19:15;;;;;;;0.70;0.70;;;19.20;99.90;;;;;;5081023;28;20227;-64
2022/09/15 05:21:43;;;;;;;0.90;0.70;;;19.20;99.90;;;;;;5081177;28;20215;-63
2022/09/15 05:24:10;;;;;;;0.53;0.53;;;19.10;99.90;;;;;;5076272;28;20238;-64
2022/09/15 05:26:38;;;;;;;0.63;0.63;;;19.20;99.90;;;;;;5081221;28;20203;-63
2022/09/15 05:29:05;;;;;;;0.60;0.60;;;19.10;99.90;;;;;;5078281;28;20231;-64
2022/09/15 05:31:33;;;;;;;0.57;0.53;;;19.10;99.90;;;;;;5071863;28;20290;-62
2022/09/15 05:34:02;;;;;;;0.50;0.50;;;19.20;99.90;;;;;;5083037;28;20686;-62
2022/09/15 05:36:29;;;;;;;1.77;0.97;;;19.10;99.90;;;;;;5077876;28;20206;-61
2022/09/15 05:38:57;;;;;;;2.03;1.30;;;19.00;99.90;;;;;;5082345;28;20226;-62
2022/09/15 05:41:26;;;;;;;0.80;0.80;;;19.00;99.90;;;;;;5080080;28;20292;-62
2022/09/15 05:43:55;;;;;;;0.50;0.50;;;19.00;99.90;;;;;;5083067;28;20645;-62
2022/09/15 05:46:24;;;;;;;0.60;0.60;;;19.00;99.90;;;;;;5082898;28;20260;-62
2022/09/15 05:48:52;;;;;;;0.73;0.70;;;19.00;99.90;;;;;;5077323;28;20329;-61
2022/09/15 05:51:20;;;;;;;0.63;0.63;;;19.00;99.90;;;;;;5081843;28;20207;-62
2022/09/15 05:53:47;;;;;;;0.57;0.57;;;19.00;99.90;;;;;;5079529;28;20195;-62
2022/09/15 05:56:15;;;;;;;1.30;0.83;;;19.00;99.90;;;;;;5082357;28;20198;-63
2022/09/15 05:58:43;;;;;;;0.68;0.57;;;19.00;99.90;;;;;;5075900;28;20269;-63
2022/09/15 06:01:14;;;;;;;0.60;0.60;;;19.10;99.90;;;;;;5069970;28;20223;-61
2022/09/15 06:03:41;;;;;;;0.50;0.50;;;19.10;99.90;;;;;;5080772;28;20203;-61
2022/09/15 06:06:08;;;;;;;0.77;0.77;;;19.00;99.90;;;;;;5075366;28;20199;-61
2022/09/15 06:08:37;;;;;;;0.67;0.67;;;19.00;99.90;;;;;;5078453;28;20243;-62
2022/09/15 06:11:05;;;;;;;0.87;0.80;;;19.00;99.90;;;;;;5078827;28;20192;-61
2022/09/15 06:13:32;;;;;;;0.70;0.70;;;19.00;99.90;;;;;;5080323;28;20612;-61
2022/09/15 06:16:04;;;;;;;0.60;0.60;;;18.90;99.90;;;;;;5081601;28;20210;-61
2022/09/15 06:18:33;;;;;;;0.47;0.47;;;18.90;99.90;;;;;;5084072;28;20229;-61
2022/09/15 06:21:04;;;;;;;0.53;0.53;;;19.00;99.90;;;;;;5087643;28;20211;-64
2022/09/15 06:23:31;;;;;;;0.50;0.50;;;19.00;99.90;;;;;;5078868;28;20665;-62
2022/09/15 06:26:08;;;;;;;0.50;0.50;;;19.10;99.90;;;;;;5084900;28;20691;-64
2022/09/15 06:28:35;;;;;;;0.77;0.77;;;19.10;99.90;;;;;;5079216;28;20219;-62
2022/09/15 06:31:02;;;;;;;0.50;0.50;;;19.10;99.90;;;;;;5078522;28;20202;-62
2022/09/15 06:33:29;;;;;;;0.70;0.70;;;19.10;99.90;;;;;;5077228;28;20203;-63
2022/09/15 06:36:01;;;;;;;0.50;0.50;;;19.10;99.90;;;;;;5090943;28;20210;-62
2022/09/15 06:38:28;;;;;;;0.80;0.80;;;19.10;99.90;;;;;;5078691;28;20230;-63
2022/09/15 06:40:56;;;;;;;1.20;0.60;;;19.10;99.90;;;;;;5087501;28;20298;-63
2022/09/15 06:43:23;;;;;;;0.40;0.40;;;19.10;99.90;;;;;;5078966;28;20207;-63
2022/09/15 06:45:49;;;;;;;0.50;0.50;;;19.10;99.90;;;;;;5081875;28;20580;-63
2022/09/15 06:48:16;;;;;;;0.67;0.67;;;19.10;99.90;;;;;;5080724;28;20275;-62
2022/09/15 06:50:43;;;;;;;0.50;0.50;;;19.10;99.90;;;;;;5081782;28;20293;-65
2022/09/15 06:53:11;;;;;;;0.60;0.60;;;19.10;99.90;;;;;;5084725;28;20203;-65
2022/09/15 06:55:38;;;;;;;0.60;0.60;;;19.10;99.90;;;;;;5078018;28;20203;-64
2022/09/15 06:58:05;;;;;;;0.43;0.43;;;19.20;99.90;;;;;;5078655;28;20226;-64
2022/09/15 07:00:32;;;;;;;0.57;0.50;;;19.10;99.90;;;;;;5076882;28;20203;-64
2022/09/15 07:02:59;;;;;;;0.60;0.60;;;19.10;99.90;;;;;;5084735;28;20294;-63
2022/09/15 07:05:26;;;;;;;0.60;0.60;;;19.20;99.90;;;;;;5084152;28;20203;-63
2022/09/15 07:07:53;;;;;;;0.40;0.40;;;19.20;99.90;;;;;;5078137;28;20302;-62
2022/09/15 07:10:21;;;;;;;0.30;0.30;;;19.20;99.90;;;;;;5077885;28;20215;-63
2022/09/15 07:12:48;;;;;;;0.67;0.67;;;19.20;99.90;;;;;;5085284;28;20675;-63
2022/09/15 07:15:15;;;;;;;0.40;0.40;;;19.10;99.90;;;;;;5082323;28;20213;-63
2022/09/15 07:17:42;;;;;;;0.30;0.30;;;19.10;99.90;;;;;;5076144;28;20265;-62
2022/09/15 07:20:09;;;;;;;0.50;0.50;;;19.10;99.90;;;;;;5084179;28;20218;-63
2022/09/15 07:22:36;;;;;;;0.40;0.40;;;19.00;99.90;;;;;;5080462;28;20223;-62
2022/09/15 07:25:03;;;;;;;0.40;0.40;;;19.10;99.90;;;;;;5078919;28;20829;-63
2022/09/15 07:27:31;;;;;;;0.30;0.30;;;19.00;99.90;;;;;;5082135;28;20204;-61
2022/09/15 07:29:59;;;;;;;0.53;0.53;;;19.10;99.90;;;;;;5078525;28;20710;-62
2022/09/15 07:32:25;;;;;;;0.40;0.40;;;19.10;99.90;;;;;;5087428;28;20198;-64
2022/09/15 07:34:52;;;;;;;0.43;0.43;;;19.10;99.90;;;;;;5083511;28;20203;-62
2022/09/15 07:37:19;;;;;;;0.40;0.40;;;19.10;99.90;;;;;;5085207;28;20198;-64
2022/09/15 07:39:46;;;;;;;0.90;0.90;;;19.10;99.90;;;;;;5083085;28;20226;-63
2022/09/15 07:42:13;;;;;;;1.27;0.73;;;19.10;99.90;;;;;;5084871;28;20563;-64
2022/09/15 07:44:41;;;;;;;0.97;0.73;;;19.10;99.90;;;;;;5084358;28;20317;-65
2022/09/15 07:47:08;;;;;;;0.80;0.80;;;19.10;99.90;;;;;;5084648;28;20815;-64
2022/09/15 07:49:35;;;;;;;0.40;0.40;;;19.20;99.90;;;;;;5082683;28;20246;-64
2022/09/15 07:52:02;;;;;;;0.40;0.40;;;19.20;99.90;;;;;;5084740;28;20195;-64
2022/09/15 07:54:29;;;;;;;0.53;0.53;;;19.20;99.90;;;;;;5078963;28;20207;-62
2022/09/15 07:56:55;;;;;;;0.20;0.20;;;19.30;99.90;;;;;;5074075;28;20657;-63
2022/09/15 07:59:22;;;;;;;0.60;0.60;;;19.30;99.90;;;;;;5074109;28;20313;-62
2022/09/15 08:01:51;;;;;;;0.33;0.33;;;19.30;99.90;;;;;;5075388;28;20229;-64
2022/09/15 08:04:18;;;;;;;0.27;0.27;;;19.30;99.90;;;;;;5073994;28;20233;-64
2022/09/15 08:06:44;;;;;;;0.30;0.30;;;19.20;99.90;;;;;;5075598;28;20196;-63
2022/09/15 08:09:13;;;;;;;0.50;0.50;;;19.30;99.90;;;;;;5073449;28;20596;-62
2022/09/15 08:11:41;;;;;;;0.50;0.50;;;19.40;99.90;;;;;;5070112;28;20229;-63
2022/09/15 08:14:08;;;;;;;0.37;0.37;;;19.40;99.90;;;;;;5072598;28;20674;-63
2022/09/15 08:16:35;;;;;;;0.50;0.50;;;19.50;99.90;;;;;;5069200;28;20205;-64
2022/09/15 08:19:04;;;;;;;0.77;0.77;;;19.50;99.90;;;;;;5069611;28;20219;-62
2022/09/15 08:21:31;;;;;;;0.30;0.30;;;19.50;99.90;;;;;;5072202;28;20451;-62
2022/09/15 08:24:00;;;;;;;0.43;0.43;;;19.60;99.90;;;;;;5072205;28;20210;-62
2022/09/15 08:26:28;;;;;;;0.43;0.43;;;19.60;99.90;;;;;;5072519;28;20653;-64
2022/09/15 08:28:55;;;;;;;0.50;0.50;;;19.60;99.90;;;;;;5069073;28;20230;-65
2022/09/15 08:31:23;;;;;;;0.40;0.40;;;19.60;99.90;;;;;;5072073;28;20210;-64
2022/09/15 08:33:52;;;;;;;0.93;0.60;;;19.60;99.90;;;;;;5069614;28;20199;-63
2022/09/15 08:36:20;;;;;;;0.50;0.50;;;19.70;99.90;;;;;;5070267;28;20661;-63
2022/09/15 08:38:47;;;;;;;0.60;0.60;;;19.70;99.90;;;;;;5071179;28;20241;-62
2022/09/15 08:41:18;;;;;;;0.50;0.50;;;19.70;99.90;;;;;;5068895;28;20202;-62
2022/09/15 08:43:50;;;;;;;0.50;0.50;;;19.70;99.90;;;;;;5071869;28;20240;-62
2022/09/15 08:46:21;;;;;;;0.40;0.40;;;19.70;99.90;;;;;;5069589;28;20221;-62
2022/09/15 08:48:53;;;;;;;0.33;0.33;;;19.70;99.90;;;;;;5070965;28;20615;-63
2022/09/15 08:51:29;;;;;;;0.53;0.53;;;19.70;99.90;;;;;;5071775;28;20201;-63
2022/09/15 08:54:01;;;;;;;0.50;0.50;;;19.70;99.90;;;;;;5069254;28;20198;-63
2022/09/15 08:56:29;;;;;;;0.50;0.50;;;19.70;99.90;;;;;;5071741;28;20207;-63
2022/09/15 08:58:56;;;;;;;0.40;0.40;;;19.80;99.90;;;;;;5070994;28;20226;-63
2022/09/15 09:01:40;;;;;;;0.50;0.50;;;19.80;99.90;;;;;;5071360;28;20215;-64
2022/09/15 09:04:22;;;;;;;0.57;0.57;;;19.80;99.90;;;;;;5071739;28;20226;-63
2022/09/15 09:07:04;;;;;;;3.30;0.40;;;19.90;99.90;;;;;;5071654;28;20280;-62
2022/09/15 09:09:39;;;;;;;0.55;0.55;;;19.90;99.90;;;;;;5075088;28;20221;-63
2022/09/15 09:12:26;;;;;;;0.63;0.50;;;19.90;99.90;;;;;;5071630;28;20286;-63
2022/09/15 09:15:05;;;;;;;0.50;0.50;;;19.90;99.90;;;;;;5073341;28;20199;-63
2022/09/15 09:17:47;;;;;;;0.60;0.60;;;19.90;99.90;;;;;;5075582;28;20559;-62
2022/09/15 09:20:30;;;;;;;0.60;0.60;;;19.90;99.90;;;;;;5073229;28;20222;-62
2022/09/15 09:23:01;;;;;;;0.60;0.60;;;19.90;99.90;;;;;;5073997;28;20214;-65
2022/09/15 09:25:28;;;;;;;2.63;0.70;;;19.90;99.90;;;;;;5067202;28;20199;-64
2022/09/15 09:27:57;;;;;;;0.47;0.47;;;19.90;99.90;;;;;;5076089;28;20210;-63
2022/09/15 09:30:27;;;;;;;0.50;0.50;;;19.90;99.90;;;;;;5070624;28;20277;-63
2022/09/15 09:33:15;;;;;;;0.50;0.50;;;20.00;99.90;;;;;;5067190;28;20707;-63
2022/09/15 09:35:44;;;;;;;0.40;0.40;;;20.10;99.90;;;;;;5076189;28;20653;-63
2022/09/15 09:38:20;;;;;;;0.40;0.40;;;20.10;99.90;;;;;;5071924;28;20195;-62
2022/09/15 09:40:49;;;;;;;0.40;0.40;;;20.10;99.90;;;;;;5076841;28;20208;-63
2022/09/15 09:43:16;;;;;;;0.30;0.30;;;20.20;99.90;;;;;;5075159;28;20608;-63
2022/09/15 09:45:44;;;;;;;0.83;0.80;;;20.20;99.90;;;;;;5077121;28;20604;-62
2022/09/15 09:48:17;;;;;;;0.53;0.53;;;20.20;99.90;;;;;;5074218;28;20199;-63
2022/09/15 09:50:45;;;;;;;0.40;0.40;;;20.30;99.90;;;;;;5070360;28;20567;-63
2022/09/15 09:53:35;;;;;;;0.60;0.60;;;20.30;99.90;;;;;;5078562;28;20199;-64
2022/09/15 09:56:22;;;;;;;0.77;0.77;;;20.20;99.90;;;;;;5072078;28;20668;-62
2022/09/15 09:58:49;;;;;;;0.63;0.63;;;20.30;99.90;;;;;;5092516;28;20245;-63
2022/09/15 10:01:18;;;;;;;0.60;0.60;;;20.30;99.90;;;;;;5077496;28;20203;-63
2022/09/15 10:03:45;;;;;;;0.47;0.47;;;20.30;99.90;;;;;;5069486;28;20241;-63
2022/09/15 10:06:15;;;;;;;0.40;0.40;;;20.30;99.90;;;;;;5075058;28;20203;-63
2022/09/15 10:08:57;;;;;;;0.60;0.60;;;20.40;99.90;;;;;;5072296;28;20579;-64
2022/09/15 10:11:40;;;;;;;0.50;0.50;;;20.50;99.90;;;;;;5080093;28;20218;-63
2022/09/15 10:14:16;;;;;;;0.70;0.70;;;20.60;99.90;;;;;;5075255;28;20210;-62
2022/09/15 10:16:43;;;;;;;0.50;0.50;;;20.70;99.90;;;;;;5078728;28;20278;-63
2022/09/15 10:19:13;;;;;;;0.67;0.67;;;20.70;99.90;;;;;;5077244;28;20226;-63
2022/09/15 10:21:40;;;;;;;0.50;0.50;;;20.60;99.90;;;;;;5077897;28;20215;-63
2022/09/15 10:24:39;;;;;;;0.50;0.50;;;20.50;99.90;;;;;;5080786;28;20259;-62
2022/09/15 10:27:17;;;;;;;0.70;0.70;;;20.40;99.90;;;;;;5082315;28;20287;-63
2022/09/15 10:29:43;;;;;;;0.53;0.50;;;20.30;99.90;;;;;;5083248;28;20225;-63
2022/09/15 10:32:22;;;;;;;0.70;0.70;;;20.20;99.90;;;;;;5084066;28;20202;-63
2022/09/15 10:34:49;;;;;;;0.60;0.60;;;19.90;99.90;;;;;;5084343;28;20202;-62
2022/09/15 10:37:24;;;;;;;0.33;0.33;;;19.50;99.90;;;;;;5086369;28;20309;-63
2022/09/15 10:39:54;;;;;;;0.50;0.50;;;19.20;99.90;;;;;;5084959;28;20221;-63
2022/09/15 10:42:50;;;;;;;0.63;0.50;;;18.90;99.90;;;;;;5086172;28;20202;-63
2022/09/15 10:45:31;;;;;;;0.87;0.70;;;18.50;99.90;;;;;;5084510;28;20229;-64
2022/09/15 10:48:23;;;;;;;0.30;0.30;;;18.20;99.90;;;;;;5077750;28;20200;-63
2022/09/15 10:50:55;;;;;;;0.30;0.30;;;18.00;99.90;;;;;;5085685;28;20603;-63
2022/09/15 10:53:36;;;;;;;0.20;0.20;;;18.00;99.90;;;;;;5089486;28;20203;-63
2022/09/15 10:56:15;;;;;;;0.23;0.23;;;18.00;99.90;;;;;;5083145;28;20765;-62
2022/09/15 10:58:55;;;;;;;0.10;0.10;;;17.90;99.90;;;;;;5084506;28;20305;-63
2022/09/15 11:01:37;;;;;;;0.17;0.17;;;17.70;99.90;;;;;;5100544;22;20249;-67
2022/09/15 11:04:21;;;;;;;0.30;0.30;;;17.60;99.90;;;;;;5081312;28;20222;-68
2022/09/15 11:06:56;;;;;;;0.37;0.37;;;17.60;99.90;;;;;;5083884;28;20200;-67
2022/09/15 11:09:26;;;;;;;0.43;0.43;;;17.60;99.90;;;;;;5081948;28;20206;-67
2022/09/15 11:12:06;;;;;;;1.03;0.40;;;17.60;99.90;;;;;;5082630;28;20225;-66
2022/09/15 11:14:42;;;;;;;0.40;0.40;;;17.60;99.90;;;;;;5079633;28;20195;-67
2022/09/15 11:17:34;;;;;;;0.50;0.50;;;17.60;99.90;;;;;;5080232;28;20209;-67
2022/09/15 11:20:27;;;;;;;0.40;0.40;;;17.70;99.90;;;;;;5079838;28;20301;-66
2022/09/15 11:23:02;;;;;;;0.40;0.40;;;17.70;99.90;;;;;;5078876;28;20306;-67
2022/09/15 11:25:32;;;;;;;0.50;0.50;;;17.70;99.90;;;;;;5082962;28;20213;-66
2022/09/15 11:28:05;;;;;;;0.67;0.67;;;17.70;99.90;;;;;;5087133;28;20621;-67
2022/09/15 11:30:37;;;;;;;0.73;0.73;;;17.70;99.90;;;;;;5084312;28;20605;-67
2022/09/15 11:33:13;;;;;;;0.70;0.70;;;17.70;99.90;;;;;;5089047;28;20294;-68
2022/09/15 11:35:45;;;;;;;0.80;0.80;;;17.60;99.90;;;;;;5076259;28;20230;-68
2022/09/15 11:38:24;;;;;;;0.73;0.73;;;17.70;99.90;;;;;;5079934;28;20578;-66
2022/09/15 11:40:56;;;;;;;1.00;1.00;;;17.60;99.90;;;;;;5086882;28;20226;-68
2022/09/15 11:43:32;;;;;;;0.63;0.63;;;17.70;99.90;;;;;;5090604;28;20352;-68
2022/09/15 11:46:06;;;;;;;0.80;0.80;;;17.80;99.90;;;;;;5077477;28;20199;-68
2022/09/15 11:48:39;;;;;;;0.70;0.70;;;18.00;99.90;;;;;;5089058;28;20206;-69
2022/09/15 11:51:07;;;;;;;0.80;0.80;;;18.10;99.90;;;;;;5096140;28;21002;-68
2022/09/15 11:53:39;;;;;;;0.57;0.57;;;18.20;99.90;;;;;;5084692;28;20198;-67
2022/09/15 11:56:14;;;;;;;0.67;0.67;;;18.30;99.90;;;;;;5085874;28;20213;-68
2022/09/15 11:58:55;;;;;;;0.60;0.60;;;18.50;99.90;;;;;;5084038;28;20309;-68
2022/09/15 12:01:27;;;;;;;0.70;0.70;;;18.60;99.90;;;;;;5081711;28;20708;-67
2022/09/15 12:03:58;;;;;;;0.60;0.60;;;18.90;99.90;;;;;;5077703;28;20222;-66
2022/09/15 12:06:32;;;;;;;0.50;0.50;;;18.70;99.90;;;;;;5071006;28;20262;-67
2022/09/15 12:09:01;;;;;;;0.80;0.80;;;18.80;99.90;;;;;;5075515;28;20225;-66
2022/09/15 12:11:31;;;;;;;0.90;0.90;;;18.70;99.90;;;;;;5067166;28;20600;-68
2022/09/15 12:13:58;;;;;;;0.80;0.80;;;18.60;99.90;;;;;;5084202;28;20203;-68
2022/09/15 12:16:27;;;;;;;0.80;0.80;;;18.60;99.90;;;;;;5074653;28;20402;-68
2022/09/15 12:18:59;;;;;;;0.83;0.83;;;18.70;99.90;;;;;;5085833;28;20348;-67
2022/09/15 12:21:34;;;;;;;0.67;0.67;;;18.80;99.90;;;;;;5086394;28;20215;-68
2022/09/15 12:24:08;;;;;;;0.83;0.83;;;18.90;99.90;;;;;;5081050;28;20275;-67
2022/09/15 12:26:35;;;;;;;0.90;0.90;;;18.80;99.90;;;;;;5077474;28;20230;-67
2022/09/15 12:29:03;;;;;;;0.90;0.90;;;18.70;99.90;;;;;;5071821;28;20210;-68
2022/09/15 12:31:36;;;;;;;0.80;0.80;;;18.80;99.90;;;;;;5078766;28;20215;-66
2022/09/15 12:34:25;;;;;;;0.80;0.80;;;18.70;99.90;;;;;;5073458;28;20264;-67
2022/09/15 12:36:54;;;;;;;0.77;0.77;;;18.70;99.90;;;;;;5077989;28;20207;-67
2022/09/15 12:39:36;;;;;;;0.90;0.90;;;18.60;99.90;;;;;;5074665;28;20199;-66
2022/09/15 12:42:13;;;;;;;0.93;0.93;;;18.50;99.90;;;;;;5078507;28;20226;-68
2022/09/15 12:44:44;;;;;;;0.70;0.70;;;18.50;99.90;;;;;;5078217;28;20244;-68
2022/09/15 12:47:27;;;;;;;0.85;0.85;;;18.40;99.90;;;;;;5079413;28;20210;-69
2022/09/15 12:49:57;;;;;;;0.87;0.87;;;18.20;99.90;;;;;;5073208;28;20210;-67
2022/09/15 12:52:25;;;;;;;0.90;0.90;;;18.20;99.90;;;;;;5078306;28;20214;-67
2022/09/15 12:54:56;;;;;;;0.80;0.80;;;18.30;99.90;;;;;;5076998;28;21035;-67
2022/09/15 12:57:26;;;;;;;1.53;1.30;;;18.40;99.90;;;;;;5078549;28;20195;-67
2022/09/15 13:00:16;;;;;;;1.00;1.00;;;18.40;99.90;;;;;;5081105;28;20282;-67
2022/09/15 13:02:46;;;;;;;1.00;1.00;;;18.40;99.90;;;;;;5078104;28;20326;-67
2022/09/15 13:05:13;;;;;;;1.00;1.00;;;18.40;99.90;;;;;;5078096;28;20342;-67
2022/09/15 13:07:55;;;;;;;1.10;1.10;;;18.30;99.90;;;;;;5082399;28;20287;-67